Time,TemperatureF,DewpointF,PressureIn,WindDirection,WindDirectionDegrees,WindSpeedMPH,WindSpeedGustMPH,Humidity,HourlyPrecipIn,Conditions,Clouds,dailyrainin,SolarRadiationWatts/m^2,SoftwareType,DateUTC
2013-09-28 00:01:00,47.5,44.1,30.28,North,351,0.0,0.0,88,0.00,,,0.00,0.0,WUHU216DAVISWMX,2013-09-28 04:01:00,
2013-09-28 00:02:00,47.5,43.8,30.28,North,351,0.0,0.0,87,0.00,,,0.00,0.0,WUHU216DAVISWMX,2013-09-28 04:02:00,
2013-09-28 00:07:00,47.3,43.9,30.28,North,351,0.0,0.0,88,0.00,,,0.00,0.0,WUHU216DAVISWMX,2013-09-28 04:07:00,
2013-09-28 00:12:00,47.2,43.8,30.28,North,351,0.0,0.0,88,0.00,,,0.00,0.0,WUHU216DAVISWMX,2013-09-28 04:12:00,
2013-09-28 00:17:00,47.1,43.7,30.28,North,351,0.0,0.0,88,0.00,,,0.00,0.0,WUHU216DAVISWMX,2013-09-28 04:17:00,
2013-09-28 00:22:00,47.0,43.6,30.28,North,351,0.0,0.0,88,0.00,,,0.00,0.0,WUHU216DAVISWMX,2013-09-28 04:22:00,
2013-09-28 00:27:00,46.9,43.8,30.28,North,351,0.0,0.0,89,0.00,,,0.00,0.0,WUHU216DAVISWMX,2013-09-28 04:27:00,
2013-09-28 00:32:00,46.8,43.7,30.28,North,351,0.0,0.0,89,0.00,,,0.00,0.0,WUHU216DAVISWMX,2013-09-28 04:32:00,
2013-09-28 00:37:00,46.7,43.6,30.28,North,351,0.0,0.0,89,0.00,,,0.00,0.0,WUHU216DAVISWMX,2013-09-28 04:37:00,
2013-09-28 00:42:00,46.6,43.5,30.28,North,351,0.0,0.0,89,0.00,,,0.00,0.0,WUHU216DAVISWMX,2013-09-28 04:42:00,
2013-09-28 00:47:00,46.5,43.4,30.29,North,351,0.0,0.0,89,0.00,,,0.00,0.0,WUHU216DAVISWMX,2013-09-28 04:47:00,
2013-09-28 00:52:00,46.4,43.6,30.28,North,351,0.0,0.0,90,0.00,,,0.00,0.0,WUHU216DAVISWMX,2013-09-28 04:52:00,
2013-09-28 00:57:00,46.3,43.2,30.28,North,351,0.0,0.0,89,0.00,,,0.00,0.0,WUHU216DAVISWMX,2013-09-28 04:57:00,
2013-09-28 01:02:00,46.2,43.1,30.28,North,351,0.0,0.0,89,0.00,,,0.00,0.0,WUHU216DAVISWMX,2013-09-28 05:02:00,
2013-09-28 01:07:00,46.1,43.0,30.28,North,351,0.0,0.0,89,0.00,,,0.00,0.0,WUHU216DAVISWMX,2013-09-28 05:07:00,
2013-09-28 01:12:00,46.0,42.6,30.28,North,351,0.0,0.0,88,0.00,,,0.00,0.0,WUHU216DAVISWMX,2013-09-28 05:12:00,
2013-09-28 01:17:00,45.9,42.8,30.29,North,351,0.0,0.0,89,0.00,,,0.00,0.0,WUHU216DAVISWMX,2013-09-28 05:17:00,
2013-09-28 01:22:00,45.8,42.4,30.28,North,351,0.0,0.0,88,0.00,,,0.00,0.0,WUHU216DAVISWMX,2013-09-28 05:22:00,
2013-09-28 01:27:00,45.7,42.3,30.29,North,351,0.0,0.0,88,0.00,,,0.00,0.0,WUHU216DAVISWMX,2013-09-28 05:27:00,
2013-09-28 01:32:00,45.6,41.9,30.28,North,351,0.0,0.0,87,0.00,,,0.00,0.0,WUHU216DAVISWMX,2013-09-28 05:32:00,
2013-09-28 01:37:00,45.6,41.9,30.29,North,351,0.0,0.0,87,0.00,,,0.00,0.0,WUHU216DAVISWMX,2013-09-28 05:37:00,
2013-09-28 01:42:00,45.6,41.6,30.29,North,351,0.0,0.0,86,0.00,,,0.00,0.0,WUHU216DAVISWMX,2013-09-28 05:42:00,
2013-09-28 01:47:00,45.5,41.5,30.28,North,351,0.0,0.0,86,0.00,,,0.00,0.0,WUHU216DAVISWMX,2013-09-28 05:47:00,
2013-09-28 01:52:00,45.4,41.7,30.28,North,351,0.0,0.0,87,0.00,,,0.00,0.0,WUHU216DAVISWMX,2013-09-28 05:52:00,
2013-09-28 01:57:00,45.3,41.3,30.28,North,351,0.0,0.0,86,0.00,,,0.00,0.0,WUHU216DAVISWMX,2013-09-28 05:57:00,
2013-09-28 02:01:00,45.2,41.2,30.28,North,351,0.0,0.0,86,0.00,,,0.00,0.0,WUHU216DAVISWMX,2013-09-28 06:01:00,
2013-09-28 02:06:00,45.2,41.2,30.28,North,351,0.0,0.0,86,0.00,,,0.00,0.0,WUHU216DAVISWMX,2013-09-28 06:06:00,
2013-09-28 02:11:00,45.1,41.1,30.29,North,351,0.0,0.0,86,0.00,,,0.00,0.0,WUHU216DAVISWMX,2013-09-28 06:11:00,
2013-09-28 02:16:00,45.0,41.0,30.29,North,351,0.0,0.0,86,0.00,,,0.00,0.0,WUHU216DAVISWMX,2013-09-28 06:16:00,
2013-09-28 02:21:00,44.9,40.9,30.28,North,351,0.0,0.0,86,0.00,,,0.00,0.0,WUHU216DAVISWMX,2013-09-28 06:21:00,
2013-09-28 02:26:00,44.9,40.9,30.29,North,351,0.0,0.0,86,0.00,,,0.00,0.0,WUHU216DAVISWMX,2013-09-28 06:26:00,
2013-09-28 02:31:00,44.8,40.8,30.28,North,351,0.0,0.0,86,0.00,,,0.00,0.0,WUHU216DAVISWMX,2013-09-28 06:31:00,
2013-09-28 02:36:00,44.8,40.8,30.28,North,351,0.0,0.0,86,0.00,,,0.00,0.0,WUHU216DAVISWMX,2013-09-28 06:36:00,
2013-09-28 02:41:00,44.9,40.9,30.28,North,351,0.0,0.0,86,0.00,,,0.00,0.0,WUHU216DAVISWMX,2013-09-28 06:41:00,
2013-09-28 02:46:00,44.8,40.8,30.28,North,351,0.0,0.0,86,0.00,,,0.00,0.0,WUHU216DAVISWMX,2013-09-28 06:46:00,
2013-09-28 02:51:00,44.8,40.8,30.28,North,351,0.0,0.0,86,0.00,,,0.00,0.0,WUHU216DAVISWMX,2013-09-28 06:51:00,
2013-09-28 02:56:00,44.9,40.9,30.28,North,351,0.0,0.0,86,0.00,,,0.00,0.0,WUHU216DAVISWMX,2013-09-28 06:56:00,
2013-09-28 03:01:00,44.8,40.8,30.28,North,351,0.0,0.0,86,0.00,,,0.00,0.0,WUHU216DAVISWMX,2013-09-28 07:01:00,
2013-09-28 03:06:00,44.7,40.7,30.29,North,351,0.0,0.0,86,0.00,,,0.00,0.0,WUHU216DAVISWMX,2013-09-28 07:06:00,
2013-09-28 03:11:00,44.7,40.7,30.29,North,351,0.0,0.0,86,0.00,,,0.00,0.0,WUHU216DAVISWMX,2013-09-28 07:11:00,
2013-09-28 03:16:00,44.7,40.7,30.29,North,351,0.0,0.0,86,0.00,,,0.00,0.0,WUHU216DAVISWMX,2013-09-28 07:16:00,
2013-09-28 03:21:00,44.7,40.7,30.28,North,351,0.0,0.0,86,0.00,,,0.00,0.0,WUHU216DAVISWMX,2013-09-28 07:21:00,
2013-09-28 03:26:00,44.7,40.7,30.28,North,351,0.0,0.0,86,0.00,,,0.00,0.0,WUHU216DAVISWMX,2013-09-28 07:26:00,
2013-09-28 03:31:00,44.6,40.7,30.28,North,351,0.0,0.0,86,0.00,,,0.00,0.0,WUHU216DAVISWMX,2013-09-28 07:31:00,
2013-09-28 03:36:00,44.6,40.7,30.28,North,351,0.0,0.0,86,0.00,,,0.00,0.0,WUHU216DAVISWMX,2013-09-28 07:36:00,
2013-09-28 03:41:00,44.5,40.6,30.28,North,351,0.0,0.0,86,0.00,,,0.00,0.0,WUHU216DAVISWMX,2013-09-28 07:41:00,
2013-09-28 03:46:00,44.5,40.6,30.28,North,351,0.0,0.0,86,0.00,,,0.00,0.0,WUHU216DAVISWMX,2013-09-28 07:46:00,
2013-09-28 03:51:00,44.5,40.6,30.29,North,351,0.0,0.0,86,0.00,,,0.00,0.0,WUHU216DAVISWMX,2013-09-28 07:51:00,
2013-09-28 03:56:00,44.6,40.9,30.29,North,351,0.0,0.0,87,0.00,,,0.00,0.0,WUHU216DAVISWMX,2013-09-28 07:56:00,
2013-09-28 04:01:00,44.7,41.0,30.28,North,351,0.0,0.0,87,0.00,,,0.00,0.0,WUHU216DAVISWMX,2013-09-28 08:01:00,
2013-09-28 04:06:00,44.7,41.0,30.29,North,351,0.0,0.0,87,0.00,,,0.00,0.0,WUHU216DAVISWMX,2013-09-28 08:06:00,
2013-09-28 04:11:00,44.8,41.1,30.29,North,351,0.0,0.0,87,0.00,,,0.00,0.0,WUHU216DAVISWMX,2013-09-28 08:11:00,
2013-09-28 04:16:00,44.9,41.2,30.29,North,351,0.0,0.0,87,0.00,,,0.00,0.0,WUHU216DAVISWMX,2013-09-28 08:16:00,
2013-09-28 04:21:00,45.0,41.3,30.29,North,351,0.0,0.0,87,0.00,,,0.00,0.0,WUHU216DAVISWMX,2013-09-28 08:21:00,
2013-09-28 04:26:00,45.0,41.3,30.29,North,351,0.0,0.0,87,0.00,,,0.00,0.0,WUHU216DAVISWMX,2013-09-28 08:26:00,
2013-09-28 04:31:00,45.0,41.3,30.29,North,351,0.0,0.0,87,0.00,,,0.00,0.0,WUHU216DAVISWMX,2013-09-28 08:31:00,
2013-09-28 04:36:00,45.1,41.4,30.29,North,351,0.0,0.0,87,0.00,,,0.00,0.0,WUHU216DAVISWMX,2013-09-28 08:36:00,
2013-09-28 04:41:00,45.2,41.5,30.29,North,351,0.0,0.0,87,0.00,,,0.00,0.0,WUHU216DAVISWMX,2013-09-28 08:41:00,
2013-09-28 04:46:00,45.3,41.6,30.29,North,351,0.0,0.0,87,0.00,,,0.00,0.0,WUHU216DAVISWMX,2013-09-28 08:46:00,
2013-09-28 04:51:00,45.6,41.9,30.29,North,351,0.0,0.0,87,0.00,,,0.00,0.0,WUHU216DAVISWMX,2013-09-28 08:51:00,
2013-09-28 04:56:00,45.9,42.2,30.30,North,351,0.0,0.0,87,0.00,,,0.00,0.0,WUHU216DAVISWMX,2013-09-28 08:56:00,
2013-09-28 05:01:00,45.9,42.2,30.30,North,351,0.0,0.0,87,0.00,,,0.00,0.0,WUHU216DAVISWMX,2013-09-28 09:01:00,
2013-09-28 05:07:00,45.8,42.1,30.30,North,351,0.0,0.0,87,0.00,,,0.00,0.0,WUHU216DAVISWMX,2013-09-28 09:07:00,
2013-09-28 05:12:00,45.6,41.9,30.30,North,351,0.0,0.0,87,0.00,,,0.00,0.0,WUHU216DAVISWMX,2013-09-28 09:12:00,
2013-09-28 05:17:00,45.5,41.8,30.30,North,351,0.0,0.0,87,0.00,,,0.00,0.0,WUHU216DAVISWMX,2013-09-28 09:17:00,
2013-09-28 05:22:00,45.5,41.8,30.30,North,351,0.0,0.0,87,0.00,,,0.00,0.0,WUHU216DAVISWMX,2013-09-28 09:22:00,
2013-09-28 05:27:00,45.6,41.9,30.30,North,351,0.0,0.0,87,0.00,,,0.00,0.0,WUHU216DAVISWMX,2013-09-28 09:27:00,
2013-09-28 05:31:00,45.5,41.8,30.30,North,351,0.0,0.0,87,0.00,,,0.00,0.0,WUHU216DAVISWMX,2013-09-28 09:31:00,
2013-09-28 05:37:00,45.4,41.7,30.30,North,351,0.0,0.0,87,0.00,,,0.00,0.0,WUHU216DAVISWMX,2013-09-28 09:37:00,
2013-09-28 05:41:00,45.3,41.6,30.30,North,351,0.0,1.0,87,0.00,,,0.00,0.0,WUHU216DAVISWMX,2013-09-28 09:41:00,
2013-09-28 05:46:00,45.2,41.5,30.30,North,351,0.0,1.0,87,0.00,,,0.00,0.0,WUHU216DAVISWMX,2013-09-28 09:46:00,
2013-09-28 05:51:00,45.1,41.4,30.30,North,351,0.0,0.0,87,0.00,,,0.00,0.0,WUHU216DAVISWMX,2013-09-28 09:51:00,
2013-09-28 05:57:00,44.9,41.2,30.31,North,351,0.0,0.0,87,0.00,,,0.00,0.0,WUHU216DAVISWMX,2013-09-28 09:57:00,
2013-09-28 06:02:00,44.7,41.0,30.31,North,351,0.0,0.0,87,0.00,,,0.00,0.0,WUHU216DAVISWMX,2013-09-28 10:02:00,
2013-09-28 06:07:00,44.6,40.9,30.31,North,351,0.0,0.0,87,0.00,,,0.00,0.0,WUHU216DAVISWMX,2013-09-28 10:07:00,
2013-09-28 06:12:00,44.5,40.8,30.31,North,351,0.0,0.0,87,0.00,,,0.00,0.0,WUHU216DAVISWMX,2013-09-28 10:12:00,
2013-09-28 06:16:00,44.4,40.7,30.31,North,351,0.0,0.0,87,0.00,,,0.00,0.0,WUHU216DAVISWMX,2013-09-28 10:16:00,
2013-09-28 06:21:00,44.3,40.6,30.31,North,351,0.0,0.0,87,0.00,,,0.00,0.0,WUHU216DAVISWMX,2013-09-28 10:21:00,
2013-09-28 06:27:00,44.3,40.6,30.31,North,351,0.0,0.0,87,0.00,,,0.00,0.0,WUHU216DAVISWMX,2013-09-28 10:27:00,
2013-09-28 06:31:00,44.2,40.5,30.32,North,351,0.0,0.0,87,0.00,,,0.00,0.0,WUHU216DAVISWMX,2013-09-28 10:31:00,
2013-09-28 06:37:00,44.1,40.5,30.32,North,351,0.0,0.0,87,0.00,,,0.00,0.0,WUHU216DAVISWMX,2013-09-28 10:37:00,
2013-09-28 06:42:00,44.0,40.4,30.32,North,351,0.0,0.0,87,0.00,,,0.00,0.0,WUHU216DAVISWMX,2013-09-28 10:42:00,
2013-09-28 06:47:00,44.1,40.5,30.32,North,351,0.0,0.0,87,0.00,,,0.00,0.0,WUHU216DAVISWMX,2013-09-28 10:47:00,
2013-09-28 06:52:00,44.1,40.7,30.32,North,351,0.0,0.0,88,0.00,,,0.00,0.0,WUHU216DAVISWMX,2013-09-28 10:52:00,
2013-09-28 06:57:00,44.1,40.5,30.33,North,351,0.0,0.0,87,0.00,,,0.00,0.0,WUHU216DAVISWMX,2013-09-28 10:57:00,
2013-09-28 07:02:00,44.2,40.5,30.33,North,351,0.0,0.0,87,0.00,,,0.00,0.0,WUHU216DAVISWMX,2013-09-28 11:02:00,
2013-09-28 07:07:00,44.6,41.2,30.33,North,351,0.0,0.0,88,0.00,,,0.00,0.0,WUHU216DAVISWMX,2013-09-28 11:07:00,
2013-09-28 07:12:00,45.3,41.9,30.33,North,351,0.0,1.0,88,0.00,,,0.00,0.0,WUHU216DAVISWMX,2013-09-28 11:12:00,
2013-09-28 07:17:00,45.6,42.2,30.33,North,351,0.0,1.0,88,0.00,,,0.00,0.0,WUHU216DAVISWMX,2013-09-28 11:17:00,
2013-09-28 07:22:00,45.9,42.5,30.33,North,351,0.0,1.0,88,0.00,,,0.00,0.0,WUHU216DAVISWMX,2013-09-28 11:22:00,
2013-09-28 07:27:00,46.3,42.9,30.33,North,351,0.0,1.0,88,0.00,,,0.00,0.0,WUHU216DAVISWMX,2013-09-28 11:27:00,
2013-09-28 07:32:00,46.5,43.1,30.33,North,351,0.0,1.0,88,0.00,,,0.00,0.0,WUHU216DAVISWMX,2013-09-28 11:32:00,
2013-09-28 07:37:00,46.6,43.2,30.33,North,351,0.0,2.0,88,0.00,,,0.00,0.0,WUHU216DAVISWMX,2013-09-28 11:37:00,
2013-09-28 07:42:00,46.9,43.5,30.33,North,351,0.0,2.0,88,0.00,,,0.00,0.0,WUHU216DAVISWMX,2013-09-28 11:42:00,
2013-09-28 07:47:00,47.1,43.7,30.33,North,351,3.0,3.0,88,0.00,,,0.00,0.0,WUHU216DAVISWMX,2013-09-28 11:47:00,
2013-09-28 07:52:00,47.4,44.0,30.34,North,351,0.0,3.0,88,0.00,,,0.00,0.0,WUHU216DAVISWMX,2013-09-28 11:52:00,
2013-09-28 07:57:00,47.6,44.5,30.34,North,351,0.0,1.0,89,0.00,,,0.00,0.0,WUHU216DAVISWMX,2013-09-28 11:57:00,
2013-09-28 08:02:00,48.0,44.9,30.34,North,351,1.0,3.0,89,0.00,,,0.00,0.0,WUHU216DAVISWMX,2013-09-28 12:02:00,
2013-09-28 08:07:00,48.7,45.6,30.34,North,351,0.0,3.0,89,0.00,,,0.00,0.0,WUHU216DAVISWMX,2013-09-28 12:07:00,
2013-09-28 08:12:00,49.6,46.5,30.34,North,351,0.0,2.0,89,0.00,,,0.00,0.0,WUHU216DAVISWMX,2013-09-28 12:12:00,
2013-09-28 08:17:00,50.5,47.3,30.34,North,351,0.0,1.0,89,0.00,,,0.00,0.0,WUHU216DAVISWMX,2013-09-28 12:17:00,
2013-09-28 08:22:00,50.7,47.5,30.34,North,351,0.0,3.0,89,0.00,,,0.00,0.0,WUHU216DAVISWMX,2013-09-28 12:22:00,
2013-09-28 08:27:00,51.1,47.9,30.35,North,351,3.0,3.0,89,0.00,,,0.00,0.0,WUHU216DAVISWMX,2013-09-28 12:27:00,
2013-09-28 08:32:00,51.5,48.3,30.35,North,351,0.0,3.0,89,0.00,,,0.00,0.0,WUHU216DAVISWMX,2013-09-28 12:32:00,
2013-09-28 08:37:00,52.3,49.1,30.35,North,351,0.0,3.0,89,0.00,,,0.00,0.0,WUHU216DAVISWMX,2013-09-28 12:37:00,
2013-09-28 08:42:00,53.0,50.1,30.35,North,350,0.0,2.0,90,0.00,,,0.00,0.0,WUHU216DAVISWMX,2013-09-28 12:42:00,
2013-09-28 08:47:00,53.4,50.8,30.35,North,349,2.0,2.0,91,0.00,,,0.00,0.0,WUHU216DAVISWMX,2013-09-28 12:47:00,
2013-09-28 08:52:00,54.2,51.9,30.34,NNW,346,0.0,2.0,92,0.00,,,0.00,0.0,WUHU216DAVISWMX,2013-09-28 12:52:00,
2013-09-28 08:57:00,55.0,52.4,30.34,NNW,340,0.0,3.0,91,0.00,,,0.00,0.0,WUHU216DAVISWMX,2013-09-28 12:57:00,
2013-09-28 09:02:00,55.1,51.6,30.34,NNW,336,0.0,4.0,88,0.00,,,0.00,0.0,WUHU216DAVISWMX,2013-09-28 13:02:00,
2013-09-28 09:07:00,55.5,51.4,30.35,NNW,336,0.0,4.0,86,0.00,,,0.00,0.0,WUHU216DAVISWMX,2013-09-28 13:07:00,
2013-09-28 09:12:00,55.9,51.5,30.35,NNW,329,1.0,4.0,85,0.00,,,0.00,0.0,WUHU216DAVISWMX,2013-09-28 13:12:00,
2013-09-28 09:17:00,56.3,51.8,30.34,NNW,329,0.0,4.0,85,0.00,,,0.00,0.0,WUHU216DAVISWMX,2013-09-28 13:17:00,
2013-09-28 09:22:00,56.8,51.7,30.35,NNW,329,0.0,3.0,83,0.00,,,0.00,0.0,WUHU216DAVISWMX,2013-09-28 13:22:00,
2013-09-28 09:27:00,57.3,51.9,30.35,NNW,328,0.0,4.0,82,0.00,,,0.00,0.0,WUHU216DAVISWMX,2013-09-28 13:27:00,
2013-09-28 09:32:00,57.7,52.3,30.35,NNW,327,0.0,4.0,82,0.00,,,0.00,0.0,WUHU216DAVISWMX,2013-09-28 13:32:00,
2013-09-28 09:37:00,58.2,52.1,30.35,NNW,327,2.0,4.0,80,0.00,,,0.00,0.0,WUHU216DAVISWMX,2013-09-28 13:37:00,
2013-09-28 09:42:00,58.6,52.2,30.35,NW,319,4.0,5.0,79,0.00,,,0.00,0.0,WUHU216DAVISWMX,2013-09-28 13:42:00,
2013-09-28 09:47:00,58.9,51.8,30.35,NW,322,1.0,5.0,77,0.00,,,0.00,0.0,WUHU216DAVISWMX,2013-09-28 13:47:00,
2013-09-28 09:52:00,59.3,52.2,30.35,NW,320,5.0,5.0,77,0.00,,,0.00,0.0,WUHU216DAVISWMX,2013-09-28 13:52:00,
2013-09-28 09:57:00,59.8,52.7,30.35,NW,320,3.0,5.0,77,0.00,,,0.00,0.0,WUHU216DAVISWMX,2013-09-28 13:57:00,
2013-09-28 10:02:00,60.1,53.0,30.35,NW,318,2.0,5.0,77,0.00,,,0.00,0.0,WUHU216DAVISWMX,2013-09-28 14:02:00,
2013-09-28 10:07:00,60.4,52.9,30.35,NW,318,0.0,5.0,76,0.00,,,0.00,0.0,WUHU216DAVISWMX,2013-09-28 14:07:00,
2013-09-28 10:12:00,60.8,52.6,30.35,NW,316,2.0,3.0,74,0.00,,,0.00,0.0,WUHU216DAVISWMX,2013-09-28 14:12:00,
2013-09-28 10:17:00,61.2,53.0,30.35,NW,313,2.0,4.0,74,0.00,,,0.00,0.0,WUHU216DAVISWMX,2013-09-28 14:17:00,
2013-09-28 10:22:00,61.7,53.8,30.35,NW,313,0.0,4.0,75,0.00,,,0.00,0.0,WUHU216DAVISWMX,2013-09-28 14:22:00,
2013-09-28 10:27:00,62.1,53.5,30.35,NW,313,3.0,3.0,73,0.00,,,0.00,0.0,WUHU216DAVISWMX,2013-09-28 14:27:00,
2013-09-28 10:32:00,62.5,53.9,30.35,NW,313,0.0,4.0,73,0.00,,,0.00,0.0,WUHU216DAVISWMX,2013-09-28 14:32:00,
2013-09-28 10:37:00,63.1,53.3,30.35,NW,313,0.0,4.0,70,0.00,,,0.00,0.0,WUHU216DAVISWMX,2013-09-28 14:37:00,
2013-09-28 10:42:00,63.5,53.7,30.35,NW,313,0.0,4.0,70,0.00,,,0.00,0.0,WUHU216DAVISWMX,2013-09-28 14:42:00,
2013-09-28 10:47:00,64.1,54.6,30.35,NW,313,0.0,4.0,71,0.00,,,0.00,0.0,WUHU216DAVISWMX,2013-09-28 14:47:00,
2013-09-28 10:52:00,64.5,53.9,30.35,NW,313,3.0,4.0,68,0.00,,,0.00,0.0,WUHU216DAVISWMX,2013-09-28 14:52:00,
2013-09-28 10:57:00,64.9,54.6,30.35,NW,313,0.0,4.0,69,0.00,,,0.00,0.0,WUHU216DAVISWMX,2013-09-28 14:57:00,
2013-09-28 11:02:00,65.4,54.3,30.35,NW,311,1.0,5.0,67,0.00,,,0.00,0.0,WUHU216DAVISWMX,2013-09-28 15:02:00,
2013-09-28 11:07:00,65.8,54.3,30.35,NW,314,1.0,5.0,66,0.00,,,0.00,0.0,WUHU216DAVISWMX,2013-09-28 15:07:00,
2013-09-28 11:12:00,66.2,54.3,30.34,NW,321,5.0,5.0,65,0.00,,,0.00,0.0,WUHU216DAVISWMX,2013-09-28 15:12:00,
2013-09-28 11:17:00,66.4,54.0,30.34,NW,323,1.0,5.0,64,0.00,,,0.00,0.0,WUHU216DAVISWMX,2013-09-28 15:17:00,
2013-09-28 11:22:00,66.7,53.4,30.34,NNW,328,4.0,6.0,62,0.00,,,0.00,0.0,WUHU216DAVISWMX,2013-09-28 15:22:00,
2013-09-28 11:27:00,66.8,53.1,30.34,NNW,344,4.0,6.0,61,0.00,,,0.00,0.0,WUHU216DAVISWMX,2013-09-28 15:27:00,
2013-09-28 11:32:00,67.0,52.8,30.34,NNW,346,0.0,6.0,60,0.00,,,0.00,0.0,WUHU216DAVISWMX,2013-09-28 15:32:00,
2013-09-28 11:37:00,67.3,52.6,30.34,WNW,303,1.0,5.0,59,0.00,,,0.00,0.0,WUHU216DAVISWMX,2013-09-28 15:37:00,
2013-09-28 11:42:00,67.8,54.5,30.33,WNW,303,1.0,5.0,62,0.00,,,0.00,0.0,WUHU216DAVISWMX,2013-09-28 15:42:00,
2013-09-28 11:47:00,68.2,55.3,30.33,NW,306,1.0,5.0,63,0.00,,,0.00,0.0,WUHU216DAVISWMX,2013-09-28 15:47:00,
2013-09-28 11:52:00,68.5,54.2,30.33,NW,306,2.0,5.0,60,0.00,,,0.00,0.0,WUHU216DAVISWMX,2013-09-28 15:52:00,
2013-09-28 11:57:00,68.9,53.2,30.33,WNW,303,0.0,4.0,57,0.00,,,0.00,0.0,WUHU216DAVISWMX,2013-09-28 15:57:00,
2013-09-28 12:02:00,68.7,52.5,30.33,WNW,303,1.0,4.0,56,0.00,,,0.00,0.0,WUHU216DAVISWMX,2013-09-28 16:02:00,
2013-09-28 12:07:00,68.9,53.7,30.33,WNW,298,3.0,5.0,58,0.00,,,0.00,0.0,WUHU216DAVISWMX,2013-09-28 16:07:00,
2013-09-28 12:12:00,69.3,53.6,30.33,NE,54,1.0,5.0,57,0.00,,,0.00,0.0,WUHU216DAVISWMX,2013-09-28 16:12:00,
2013-09-28 12:17:00,69.5,54.7,30.33,North,0,0.0,4.0,59,0.00,,,0.00,0.0,WUHU216DAVISWMX,2013-09-28 16:17:00,
2013-09-28 12:22:00,69.8,55.0,30.33,WNW,293,2.0,5.0,59,0.00,,,0.00,0.0,WUHU216DAVISWMX,2013-09-28 16:22:00,
2013-09-28 12:27:00,69.6,53.8,30.33,WNW,294,0.0,5.0,57,0.00,,,0.00,0.0,WUHU216DAVISWMX,2013-09-28 16:27:00,
2013-09-28 12:32:00,69.3,53.6,30.33,NW,321,1.0,5.0,57,0.00,,,0.00,0.0,WUHU216DAVISWMX,2013-09-28 16:32:00,
2013-09-28 12:37:00,69.2,53.0,30.32,North,3,4.0,6.0,56,0.00,,,0.00,0.0,WUHU216DAVISWMX,2013-09-28 16:37:00,
2013-09-28 12:42:00,69.5,53.3,30.32,North,0,3.0,6.0,56,0.00,,,0.00,0.0,WUHU216DAVISWMX,2013-09-28 16:42:00,
2013-09-28 12:47:00,69.9,53.1,30.32,NNW,331,0.0,6.0,55,0.00,,,0.00,0.0,WUHU216DAVISWMX,2013-09-28 16:47:00,
2013-09-28 12:52:00,70.3,51.9,30.32,North,355,3.0,6.0,52,0.00,,,0.00,0.0,WUHU216DAVISWMX,2013-09-28 16:52:00,
2013-09-28 12:57:00,70.1,51.2,30.31,NNW,346,0.0,6.0,51,0.00,,,0.00,0.0,WUHU216DAVISWMX,2013-09-28 16:57:00,
2013-09-28 13:02:00,70.2,52.4,30.32,North,357,1.0,3.0,53,0.00,,,0.00,0.0,WUHU216DAVISWMX,2013-09-28 17:02:00,
2013-09-28 13:07:00,70.1,51.2,30.31,North,354,0.0,6.0,51,0.00,,,0.00,0.0,WUHU216DAVISWMX,2013-09-28 17:07:00,
2013-09-28 13:12:00,70.0,51.1,30.31,North,358,2.0,6.0,51,0.00,,,0.00,0.0,WUHU216DAVISWMX,2013-09-28 17:12:00,
2013-09-28 13:17:00,70.1,51.7,30.31,North,357,1.0,5.0,52,0.00,,,0.00,0.0,WUHU216DAVISWMX,2013-09-28 17:17:00,
2013-09-28 13:22:00,70.5,52.7,30.31,North,0,2.0,4.0,53,0.00,,,0.00,0.0,WUHU216DAVISWMX,2013-09-28 17:22:00,
2013-09-28 13:27:00,70.8,51.9,30.31,East,85,0.0,4.0,51,0.00,,,0.00,0.0,WUHU216DAVISWMX,2013-09-28 17:27:00,
2013-09-28 13:32:00,70.6,51.7,30.31,East,85,1.0,4.0,51,0.00,,,0.00,0.0,WUHU216DAVISWMX,2013-09-28 17:32:00,
2013-09-28 13:37:00,70.4,50.9,30.31,North,7,5.0,5.0,50,0.00,,,0.00,0.0,WUHU216DAVISWMX,2013-09-28 17:37:00,
2013-09-28 13:42:00,70.2,50.2,30.31,North,356,1.0,5.0,49,0.00,,,0.00,0.0,WUHU216DAVISWMX,2013-09-28 17:42:00,
2013-09-28 13:47:00,70.2,50.2,30.30,North,356,0.0,5.0,49,0.00,,,0.00,0.0,WUHU216DAVISWMX,2013-09-28 17:47:00,
2013-09-28 13:52:00,70.2,50.2,30.30,North,0,1.0,3.0,49,0.00,,,0.00,0.0,WUHU216DAVISWMX,2013-09-28 17:52:00,
2013-09-28 13:57:00,70.4,50.4,30.30,North,354,2.0,3.0,49,0.00,,,0.00,0.0,WUHU216DAVISWMX,2013-09-28 17:57:00,
2013-09-28 14:02:00,70.7,50.1,30.30,North,0,1.0,5.0,48,0.00,,,0.00,0.0,WUHU216DAVISWMX,2013-09-28 18:02:00,
2013-09-28 14:07:00,70.8,50.7,30.30,NNW,329,2.0,6.0,49,0.00,,,0.00,0.0,WUHU216DAVISWMX,2013-09-28 18:07:00,
2013-09-28 14:12:00,70.7,51.2,30.30,NNW,335,0.0,6.0,50,0.00,,,0.00,0.0,WUHU216DAVISWMX,2013-09-28 18:12:00,
2013-09-28 14:17:00,70.6,50.0,30.30,NNW,335,0.0,2.0,48,0.00,,,0.00,0.0,WUHU216DAVISWMX,2013-09-28 18:17:00,
2013-09-28 14:22:00,70.9,51.9,30.30,NNW,328,2.0,2.0,51,0.00,,,0.00,0.0,WUHU216DAVISWMX,2013-09-28 18:22:00,
2013-09-28 14:27:00,71.4,51.3,30.30,NE,48,1.0,4.0,49,0.00,,,0.00,0.0,WUHU216DAVISWMX,2013-09-28 18:27:00,
2013-09-28 14:32:00,71.3,50.0,30.30,North,7,1.0,6.0,47,0.00,,,0.00,0.0,WUHU216DAVISWMX,2013-09-28 18:32:00,
2013-09-28 14:37:00,70.8,50.2,30.30,NNE,13,0.0,6.0,48,0.00,,,0.00,0.0,WUHU216DAVISWMX,2013-09-28 18:37:00,
2013-09-28 14:42:00,70.6,50.0,30.29,NNE,13,2.0,3.0,48,0.00,,,0.00,0.0,WUHU216DAVISWMX,2013-09-28 18:42:00,
2013-09-28 14:47:00,70.9,49.7,30.29,NNE,12,1.0,5.0,47,0.00,,,0.00,0.0,WUHU216DAVISWMX,2013-09-28 18:47:00,
2013-09-28 14:52:00,71.5,51.4,30.29,SE,130,3.0,5.0,49,0.00,,,0.00,0.0,WUHU216DAVISWMX,2013-09-28 18:52:00,
2013-09-28 14:57:00,71.7,49.8,30.29,North,1,3.0,6.0,46,0.00,,,0.00,0.0,WUHU216DAVISWMX,2013-09-28 18:57:00,
2013-09-28 15:02:00,71.5,50.2,30.29,NNW,335,0.0,7.0,47,0.00,,,0.00,0.0,WUHU216DAVISWMX,2013-09-28 19:02:00,
2013-09-28 15:07:00,71.7,51.0,30.29,SE,126,3.0,7.0,48,0.00,,,0.00,0.0,WUHU216DAVISWMX,2013-09-28 19:07:00,
2013-09-28 15:12:00,71.7,49.2,30.29,ENE,73,2.0,4.0,45,0.00,,,0.00,0.0,WUHU216DAVISWMX,2013-09-28 19:12:00,
2013-09-28 15:17:00,71.6,49.1,30.29,NE,42,3.0,4.0,45,0.00,,,0.00,0.0,WUHU216DAVISWMX,2013-09-28 19:17:00,
2013-09-28 15:22:00,71.9,51.8,30.29,SE,134,6.0,7.0,49,0.00,,,0.00,0.0,WUHU216DAVISWMX,2013-09-28 19:22:00,
2013-09-28 15:27:00,71.7,51.0,30.29,NE,42,0.0,7.0,48,0.00,,,0.00,0.0,WUHU216DAVISWMX,2013-09-28 19:27:00,
2013-09-28 15:32:00,71.2,51.7,30.29,ESE,118,2.0,7.0,50,0.00,,,0.00,0.0,WUHU216DAVISWMX,2013-09-28 19:32:00,
2013-09-28 15:37:00,70.9,51.9,30.29,ESE,122,0.0,5.0,51,0.00,,,0.00,0.0,WUHU216DAVISWMX,2013-09-28 19:37:00,
2013-09-28 15:42:00,70.6,52.2,30.29,SE,128,0.0,5.0,52,0.00,,,0.00,0.0,WUHU216DAVISWMX,2013-09-28 19:42:00,
2013-09-28 15:47:00,70.2,52.4,30.29,SE,142,1.0,6.0,53,0.00,,,0.00,0.0,WUHU216DAVISWMX,2013-09-28 19:47:00,
2013-09-28 15:52:00,70.1,51.7,30.29,SE,145,0.0,6.0,52,0.00,,,0.00,0.0,WUHU216DAVISWMX,2013-09-28 19:52:00,
2013-09-28 15:57:00,70.1,51.7,30.29,SE,125,2.0,4.0,52,0.00,,,0.00,0.0,WUHU216DAVISWMX,2013-09-28 19:57:00,
2013-09-28 16:02:00,70.3,52.5,30.29,SE,140,1.0,4.0,53,0.00,,,0.00,0.0,WUHU216DAVISWMX,2013-09-28 20:02:00,
2013-09-28 16:07:00,70.4,51.5,30.29,South,172,2.0,5.0,51,0.00,,,0.00,0.0,WUHU216DAVISWMX,2013-09-28 20:07:00,
2013-09-28 16:12:00,70.3,50.8,30.29,SE,142,2.0,6.0,50,0.00,,,0.00,0.0,WUHU216DAVISWMX,2013-09-28 20:12:00,
2013-09-28 16:17:00,70.3,51.4,30.29,SSE,147,2.0,7.0,51,0.00,,,0.00,0.0,WUHU216DAVISWMX,2013-09-28 20:17:00,
2013-09-28 16:22:00,70.2,50.7,30.29,SSE,160,3.0,7.0,50,0.00,,,0.00,0.0,WUHU216DAVISWMX,2013-09-28 20:22:00,
2013-09-28 16:27:00,69.9,50.5,30.29,South,171,2.0,7.0,50,0.00,,,0.00,0.0,WUHU216DAVISWMX,2013-09-28 20:27:00,
2013-09-28 16:32:00,69.7,50.3,30.29,SE,142,1.0,5.0,50,0.00,,,0.00,0.0,WUHU216DAVISWMX,2013-09-28 20:32:00,
2013-09-28 16:38:00,69.4,50.0,30.29,SSE,166,2.0,6.0,50,0.00,,,0.00,0.0,WUHU216DAVISWMX,2013-09-28 20:38:00,
2013-09-28 16:43:00,69.1,49.7,30.29,South,184,0.0,6.0,50,0.00,,,0.00,0.0,WUHU216DAVISWMX,2013-09-28 20:43:00,
2013-09-28 16:48:00,68.8,49.5,30.29,South,169,0.0,3.0,50,0.00,,,0.00,0.0,WUHU216DAVISWMX,2013-09-28 20:48:00,
2013-09-28 16:53:00,68.6,49.8,30.29,South,169,1.0,3.0,51,0.00,,,0.00,0.0,WUHU216DAVISWMX,2013-09-28 20:53:00,
2013-09-28 16:58:00,68.4,50.2,30.29,SSE,159,0.0,3.0,52,0.00,,,0.00,0.0,WUHU216DAVISWMX,2013-09-28 20:58:00,
2013-09-28 17:03:00,68.1,49.9,30.29,SSE,151,0.0,6.0,52,0.00,,,0.00,0.0,WUHU216DAVISWMX,2013-09-28 21:03:00,
2013-09-28 17:08:00,67.8,49.6,30.29,SSE,151,2.0,6.0,52,0.00,,,0.00,0.0,WUHU216DAVISWMX,2013-09-28 21:08:00,
2013-09-28 17:13:00,67.6,49.4,30.29,SSE,153,0.0,4.0,52,0.00,,,0.00,0.0,WUHU216DAVISWMX,2013-09-28 21:13:00,
2013-09-28 17:18:00,67.4,49.8,30.29,NE,51,0.0,6.0,53,0.00,,,0.00,0.0,WUHU216DAVISWMX,2013-09-28 21:18:00,
2013-09-28 17:23:00,67.2,49.1,30.30,East,91,0.0,6.0,52,0.00,,,0.00,0.0,WUHU216DAVISWMX,2013-09-28 21:23:00,
2013-09-28 17:28:00,67.0,49.4,30.30,East,92,2.0,4.0,53,0.00,,,0.00,0.0,WUHU216DAVISWMX,2013-09-28 21:28:00,
2013-09-28 17:33:00,66.8,49.7,30.29,ESE,109,0.0,4.0,54,0.00,,,0.00,0.0,WUHU216DAVISWMX,2013-09-28 21:33:00,
2013-09-28 17:38:00,66.5,49.9,30.29,ESE,109,0.0,4.0,55,0.00,,,0.00,0.0,WUHU216DAVISWMX,2013-09-28 21:38:00,
2013-09-28 17:43:00,66.3,50.3,30.30,ESE,109,0.0,2.0,56,0.00,,,0.00,0.0,WUHU216DAVISWMX,2013-09-28 21:43:00,
2013-09-28 17:48:00,66.1,51.0,30.30,ESE,109,0.0,0.0,58,0.00,,,0.00,0.0,WUHU216DAVISWMX,2013-09-28 21:48:00,
2013-09-28 17:53:00,65.7,52.5,30.30,ESE,107,0.0,0.0,62,0.00,,,0.00,0.0,WUHU216DAVISWMX,2013-09-28 21:53:00,
2013-09-28 17:58:00,65.4,53.5,30.30,ESE,109,0.0,0.0,65,0.00,,,0.00,0.0,WUHU216DAVISWMX,2013-09-28 21:58:00,
2013-09-28 18:03:00,65.1,52.8,30.30,ESE,109,0.0,0.0,64,0.00,,,0.00,0.0,WUHU216DAVISWMX,2013-09-28 22:03:00,
2013-09-28 18:08:00,64.7,51.5,30.30,ESE,109,0.0,0.0,62,0.00,,,0.00,0.0,WUHU216DAVISWMX,2013-09-28 22:08:00,
2013-09-28 18:13:00,64.3,51.6,30.30,ESE,109,0.0,0.0,63,0.00,,,0.00,0.0,WUHU216DAVISWMX,2013-09-28 22:13:00,
2013-09-28 18:18:00,63.8,52.4,30.30,ESE,109,0.0,0.0,66,0.00,,,0.00,0.0,WUHU216DAVISWMX,2013-09-28 22:18:00,
2013-09-28 18:23:00,63.2,51.4,30.30,ESE,109,0.0,0.0,65,0.00,,,0.00,0.0,WUHU216DAVISWMX,2013-09-28 22:23:00,
2013-09-28 18:28:00,62.8,51.4,30.29,ESE,109,0.0,0.0,66,0.00,,,0.00,0.0,WUHU216DAVISWMX,2013-09-28 22:28:00,
2013-09-28 18:33:00,62.4,53.4,30.29,ESE,109,0.0,0.0,72,0.00,,,0.00,0.0,WUHU216DAVISWMX,2013-09-28 22:33:00,
2013-09-28 18:38:00,62.1,52.3,30.30,ESE,109,0.0,0.0,70,0.00,,,0.00,0.0,WUHU216DAVISWMX,2013-09-28 22:38:00,
2013-09-28 18:43:00,61.5,51.0,30.29,ESE,109,0.0,0.0,68,0.00,,,0.00,0.0,WUHU216DAVISWMX,2013-09-28 22:43:00,
2013-09-28 18:48:00,61.0,51.7,30.29,ESE,109,0.0,0.0,71,0.00,,,0.00,0.0,WUHU216DAVISWMX,2013-09-28 22:48:00,
2013-09-28 18:53:00,60.4,51.5,30.29,ESE,109,0.0,0.0,72,0.00,,,0.00,0.0,WUHU216DAVISWMX,2013-09-28 22:53:00,
2013-09-28 18:58:00,59.9,51.3,30.29,ESE,109,0.0,0.0,73,0.00,,,0.00,0.0,WUHU216DAVISWMX,2013-09-28 22:58:00,
2013-09-28 19:03:00,59.3,51.5,30.29,ESE,109,0.0,0.0,75,0.00,,,0.00,0.0,WUHU216DAVISWMX,2013-09-28 23:03:00,
2013-09-28 19:08:00,58.8,52.0,30.29,ESE,109,0.0,0.0,78,0.00,,,0.00,0.0,WUHU216DAVISWMX,2013-09-28 23:08:00,
2013-09-28 19:13:00,58.4,50.6,30.29,ESE,109,0.0,0.0,75,0.00,,,0.00,0.0,WUHU216DAVISWMX,2013-09-28 23:13:00,
2013-09-28 19:18:00,58.0,50.9,30.30,ESE,109,0.0,0.0,77,0.00,,,0.00,0.0,WUHU216DAVISWMX,2013-09-28 23:18:00,
2013-09-28 19:23:00,57.7,50.6,30.29,ESE,109,0.0,0.0,77,0.00,,,0.00,0.0,WUHU216DAVISWMX,2013-09-28 23:23:00,
2013-09-28 19:28:00,57.4,50.3,30.30,ESE,109,0.0,0.0,77,0.00,,,0.00,0.0,WUHU216DAVISWMX,2013-09-28 23:28:00,
2013-09-28 19:33:00,57.1,50.4,30.29,ESE,109,0.0,0.0,78,0.00,,,0.00,0.0,WUHU216DAVISWMX,2013-09-28 23:33:00,
2013-09-28 19:38:00,56.8,50.4,30.30,ESE,109,0.0,0.0,79,0.00,,,0.00,0.0,WUHU216DAVISWMX,2013-09-28 23:38:00,
2013-09-28 19:43:00,56.5,50.5,30.29,ESE,109,0.0,0.0,80,0.00,,,0.00,0.0,WUHU216DAVISWMX,2013-09-28 23:43:00,
2013-09-28 19:48:00,56.2,51.4,30.30,ESE,109,0.0,0.0,84,0.00,,,0.00,0.0,WUHU216DAVISWMX,2013-09-28 23:48:00,
2013-09-28 19:53:00,55.9,49.9,30.29,ESE,109,0.0,0.0,80,0.00,,,0.00,0.0,WUHU216DAVISWMX,2013-09-28 23:53:00,
2013-09-28 19:58:00,55.5,49.5,30.29,ESE,109,0.0,0.0,80,0.00,,,0.00,0.0,WUHU216DAVISWMX,2013-09-28 23:58:00,
2013-09-28 20:03:00,55.2,49.2,30.29,ESE,109,0.0,0.0,80,0.00,,,0.00,0.0,WUHU216DAVISWMX,2013-09-29 00:03:00,
2013-09-28 20:08:00,55.0,49.6,30.30,ESE,109,0.0,0.0,82,0.00,,,0.00,0.0,WUHU216DAVISWMX,2013-09-29 00:08:00,
2013-09-28 20:13:00,54.7,49.3,30.30,ESE,109,0.0,0.0,82,0.00,,,0.00,0.0,WUHU216DAVISWMX,2013-09-29 00:13:00,
2013-09-28 20:18:00,54.5,49.1,30.30,ESE,109,0.0,0.0,82,0.00,,,0.00,0.0,WUHU216DAVISWMX,2013-09-29 00:18:00,
2013-09-28 20:23:00,54.3,48.3,30.30,ESE,109,0.0,0.0,80,0.00,,,0.00,0.0,WUHU216DAVISWMX,2013-09-29 00:23:00,
2013-09-28 20:28:00,54.0,48.7,30.30,ESE,109,0.0,0.0,82,0.00,,,0.00,0.0,WUHU216DAVISWMX,2013-09-29 00:28:00,
2013-09-28 20:33:00,53.7,48.7,30.30,ESE,109,0.0,0.0,83,0.00,,,0.00,0.0,WUHU216DAVISWMX,2013-09-29 00:33:00,
2013-09-28 20:38:00,53.6,48.9,30.30,ESE,109,0.0,0.0,84,0.00,,,0.00,0.0,WUHU216DAVISWMX,2013-09-29 00:38:00,
2013-09-28 20:43:00,53.3,48.0,30.30,ESE,109,0.0,0.0,82,0.00,,,0.00,0.0,WUHU216DAVISWMX,2013-09-29 00:43:00,
2013-09-28 20:48:00,53.2,48.8,30.30,ESE,109,0.0,0.0,85,0.00,,,0.00,0.0,WUHU216DAVISWMX,2013-09-29 00:48:00,
2013-09-28 20:53:00,53.0,48.6,30.30,ESE,109,0.0,0.0,85,0.00,,,0.00,0.0,WUHU216DAVISWMX,2013-09-29 00:53:00,
2013-09-28 20:58:00,52.8,48.7,30.30,ESE,109,0.0,0.0,86,0.00,,,0.00,0.0,WUHU216DAVISWMX,2013-09-29 00:58:00,
2013-09-28 21:03:00,52.6,47.9,30.30,ESE,109,0.0,0.0,84,0.00,,,0.00,0.0,WUHU216DAVISWMX,2013-09-29 01:03:00,
2013-09-28 21:08:00,52.4,47.7,30.30,ESE,109,0.0,0.0,84,0.00,,,0.00,0.0,WUHU216DAVISWMX,2013-09-29 01:08:00,
2013-09-28 21:13:00,52.2,47.5,30.30,ESE,109,0.0,0.0,84,0.00,,,0.00,0.0,WUHU216DAVISWMX,2013-09-29 01:13:00,
2013-09-28 21:18:00,52.0,47.6,30.30,ESE,109,0.0,0.0,85,0.00,,,0.00,0.0,WUHU216DAVISWMX,2013-09-29 01:18:00,
2013-09-28 21:23:00,51.8,47.7,30.30,ESE,109,0.0,0.0,86,0.00,,,0.00,0.0,WUHU216DAVISWMX,2013-09-29 01:23:00,
2013-09-28 21:28:00,51.6,47.2,30.30,ESE,109,0.0,0.0,85,0.00,,,0.00,0.0,WUHU216DAVISWMX,2013-09-29 01:28:00,
2013-09-28 21:33:00,51.4,46.4,30.30,ESE,109,0.0,0.0,83,0.00,,,0.00,0.0,WUHU216DAVISWMX,2013-09-29 01:33:00,
2013-09-28 21:38:00,51.3,46.0,30.30,ESE,109,0.0,0.0,82,0.00,,,0.00,0.0,WUHU216DAVISWMX,2013-09-29 01:38:00,
2013-09-28 21:43:00,51.0,45.4,30.30,ESE,109,0.0,0.0,81,0.00,,,0.00,0.0,WUHU216DAVISWMX,2013-09-29 01:43:00,
2013-09-28 21:48:00,50.9,45.3,30.31,ESE,109,0.0,0.0,81,0.00,,,0.00,0.0,WUHU216DAVISWMX,2013-09-29 01:48:00,
2013-09-28 21:53:00,50.6,45.0,30.30,ESE,109,0.0,0.0,81,0.00,,,0.00,0.0,WUHU216DAVISWMX,2013-09-29 01:53:00,
2013-09-28 21:58:00,50.5,45.5,30.30,ESE,109,0.0,0.0,83,0.00,,,0.00,0.0,WUHU216DAVISWMX,2013-09-29 01:58:00,
2013-09-28 22:03:00,50.4,45.7,30.30,ESE,109,0.0,0.0,84,0.00,,,0.00,0.0,WUHU216DAVISWMX,2013-09-29 02:03:00,
2013-09-28 22:08:00,50.2,45.6,30.30,ESE,109,0.0,0.0,84,0.00,,,0.00,0.0,WUHU216DAVISWMX,2013-09-29 02:08:00,
2013-09-28 22:13:00,50.1,45.8,30.30,ESE,109,0.0,0.0,85,0.00,,,0.00,0.0,WUHU216DAVISWMX,2013-09-29 02:13:00,
2013-09-28 22:18:00,49.9,45.0,30.30,ESE,109,0.0,0.0,83,0.00,,,0.00,0.0,WUHU216DAVISWMX,2013-09-29 02:18:00,
2013-09-28 22:23:00,49.8,44.9,30.30,ESE,109,0.0,0.0,83,0.00,,,0.00,0.0,WUHU216DAVISWMX,2013-09-29 02:23:00,
2013-09-28 22:28:00,49.6,44.7,30.30,ESE,109,0.0,0.0,83,0.00,,,0.00,0.0,WUHU216DAVISWMX,2013-09-29 02:28:00,
2013-09-28 22:33:00,49.4,45.1,30.30,ESE,109,0.0,0.0,85,0.00,,,0.00,0.0,WUHU216DAVISWMX,2013-09-29 02:33:00,
2013-09-28 22:38:00,49.2,45.2,30.30,ESE,109,0.0,0.0,86,0.00,,,0.00,0.0,WUHU216DAVISWMX,2013-09-29 02:38:00,
2013-09-28 22:43:00,49.0,45.0,30.30,ESE,109,0.0,0.0,86,0.00,,,0.00,0.0,WUHU216DAVISWMX,2013-09-29 02:43:00,
2013-09-28 22:48:00,48.8,44.8,30.30,ESE,109,0.0,0.0,86,0.00,,,0.00,0.0,WUHU216DAVISWMX,2013-09-29 02:48:00,
2013-09-28 22:53:00,48.7,45.0,30.30,ESE,109,0.0,0.0,87,0.00,,,0.00,0.0,WUHU216DAVISWMX,2013-09-29 02:53:00,
2013-09-28 22:58:00,48.6,44.9,30.29,ESE,109,0.0,0.0,87,0.00,,,0.00,0.0,WUHU216DAVISWMX,2013-09-29 02:58:00,
2013-09-28 23:04:00,48.5,44.8,30.30,ESE,109,0.0,0.0,87,0.00,,,0.00,0.0,WUHU216DAVISWMX,2013-09-29 03:04:00,
2013-09-28 23:09:00,48.4,44.7,30.29,ESE,109,0.0,0.0,87,0.00,,,0.00,0.0,WUHU216DAVISWMX,2013-09-29 03:09:00,
2013-09-28 23:14:00,48.3,44.3,30.29,ESE,109,0.0,0.0,86,0.00,,,0.00,0.0,WUHU216DAVISWMX,2013-09-29 03:14:00,
2013-09-28 23:19:00,48.2,44.2,30.29,ESE,109,0.0,0.0,86,0.00,,,0.00,0.0,WUHU216DAVISWMX,2013-09-29 03:19:00,
2013-09-28 23:24:00,48.1,44.1,30.29,ESE,109,0.0,0.0,86,0.00,,,0.00,0.0,WUHU216DAVISWMX,2013-09-29 03:24:00,
2013-09-28 23:29:00,48.0,43.7,30.29,ESE,109,0.0,0.0,85,0.00,,,0.00,0.0,WUHU216DAVISWMX,2013-09-29 03:29:00,
2013-09-28 23:34:00,47.9,43.0,30.29,ESE,109,0.0,0.0,83,0.00,,,0.00,0.0,WUHU216DAVISWMX,2013-09-29 03:34:00,
2013-09-28 23:39:00,47.7,42.8,30.29,ESE,109,0.0,0.0,83,0.00,,,0.00,0.0,WUHU216DAVISWMX,2013-09-29 03:39:00,
2013-09-28 23:44:00,47.6,42.7,30.29,ESE,109,0.0,0.0,83,0.00,,,0.00,0.0,WUHU216DAVISWMX,2013-09-29 03:44:00,
2013-09-28 23:49:00,47.5,42.6,30.28,ESE,109,0.0,0.0,83,0.00,,,0.00,0.0,WUHU216DAVISWMX,2013-09-29 03:49:00,
2013-09-28 23:54:00,47.3,42.4,30.28,ESE,109,0.0,0.0,83,0.00,,,0.00,0.0,WUHU216DAVISWMX,2013-09-29 03:54:00,
2013-09-28 23:59:00,47.1,42.2,30.28,ESE,109,0.0,0.0,83,0.00,,,0.00,0.0,WUHU216DAVISWMX,2013-09-29 03:59:00,